sensor_id;sensor_type;location;lat;lon;timestamp;pressure;altitude;pressure_sealevel;temperature
20092;BMP180;10205;49.678;6.560;2023-09-19T00:01:33;99457.00;;;24.20
20092;BMP180;10205;49.678;6.560;2023-09-19T00:04:01;99460.00;;;24.20
20092;BMP180;10205;49.678;6.560;2023-09-19T00:06:29;99468.00;;;24.20
20092;BMP180;10205;49.678;6.560;2023-09-19T00:08:57;99467.00;;;24.20
20092;BMP180;10205;49.678;6.560;2023-09-19T00:11:26;99471.00;;;24.20
20092;BMP180;10205;49.678;6.560;2023-09-19T00:13:54;99473.00;;;24.10
20092;BMP180;10205;49.678;6.560;2023-09-19T00:16:22;99478.00;;;24.10
20092;BMP180;10205;49.678;6.560;2023-09-19T00:18:52;99484.00;;;24.10
20092;BMP180;10205;49.678;6.560;2023-09-19T00:21:19;99489.00;;;24.10
20092;BMP180;10205;49.678;6.560;2023-09-19T00:23:46;99488.00;;;24.00
20092;BMP180;10205;49.678;6.560;2023-09-19T00:26:13;99502.00;;;24.00
20092;BMP180;10205;49.678;6.560;2023-09-19T00:28:41;99492.00;;;24.00
20092;BMP180;10205;49.678;6.560;2023-09-19T00:31:08;99485.00;;;24.00
20092;BMP180;10205;49.678;6.560;2023-09-19T00:33:35;99500.00;;;23.90
20092;BMP180;10205;49.678;6.560;2023-09-19T00:36:04;99498.00;;;23.90
20092;BMP180;10205;49.678;6.560;2023-09-19T00:38:31;99494.00;;;23.90
20092;BMP180;10205;49.678;6.560;2023-09-19T00:40:58;99495.00;;;23.90
20092;BMP180;10205;49.678;6.560;2023-09-19T00:43:26;99492.00;;;23.80
20092;BMP180;10205;49.678;6.560;2023-09-19T00:45:55;99501.00;;;23.70
20092;BMP180;10205;49.678;6.560;2023-09-19T00:48:24;99502.00;;;23.80
20092;BMP180;10205;49.678;6.560;2023-09-19T00:50:53;99505.00;;;23.80
20092;BMP180;10205;49.678;6.560;2023-09-19T00:53:23;99505.00;;;23.70
20092;BMP180;10205;49.678;6.560;2023-09-19T00:55:51;99505.00;;;23.70
20092;BMP180;10205;49.678;6.560;2023-09-19T00:58:19;99508.00;;;23.70
20092;BMP180;10205;49.678;6.560;2023-09-19T01:00:48;99504.00;;;23.60
20092;BMP180;10205;49.678;6.560;2023-09-19T01:03:15;99505.00;;;23.60
20092;BMP180;10205;49.678;6.560;2023-09-19T01:05:44;99514.00;;;23.60
20092;BMP180;10205;49.678;6.560;2023-09-19T01:08:11;99519.00;;;23.60
20092;BMP180;10205;49.678;6.560;2023-09-19T01:10:48;99508.00;;;23.50
20092;BMP180;10205;49.678;6.560;2023-09-19T01:13:27;99511.00;;;23.50
20092;BMP180;10205;49.678;6.560;2023-09-19T01:16:06;99520.00;;;23.50
20092;BMP180;10205;49.678;6.560;2023-09-19T01:18:47;99523.00;;;23.40
20092;BMP180;10205;49.678;6.560;2023-09-19T01:21:28;99537.00;;;23.40
20092;BMP180;10205;49.678;6.560;2023-09-19T01:24:22;99534.00;;;23.30
20092;BMP180;10205;49.678;6.560;2023-09-19T01:27:36;99552.00;;;23.30
20092;BMP180;10205;49.678;6.560;2023-09-19T01:30:17;99544.00;;;23.20
20092;BMP180;10205;49.678;6.560;2023-09-19T01:32:45;99576.00;;;23.20
20092;BMP180;10205;49.678;6.560;2023-09-19T01:35:12;99555.00;;;23.20
20092;BMP180;10205;49.678;6.560;2023-09-19T01:37:39;99553.00;;;23.20
20092;BMP180;10205;49.678;6.560;2023-09-19T01:40:12;99553.00;;;23.10
20092;BMP180;10205;49.678;6.560;2023-09-19T01:42:49;99555.00;;;23.10
20092;BMP180;10205;49.678;6.560;2023-09-19T01:45:28;99560.00;;;23.10
20092;BMP180;10205;49.678;6.560;2023-09-19T01:48:13;99565.00;;;23.00
20092;BMP180;10205;49.678;6.560;2023-09-19T01:50:55;99550.00;;;23.00
20092;BMP180;10205;49.678;6.560;2023-09-19T01:53:28;99542.00;;;23.00
20092;BMP180;10205;49.678;6.560;2023-09-19T01:55:58;99535.00;;;22.90
20092;BMP180;10205;49.678;6.560;2023-09-19T01:58:35;99549.00;;;22.90
20092;BMP180;10205;49.678;6.560;2023-09-19T02:01:08;99548.00;;;22.90
20092;BMP180;10205;49.678;6.560;2023-09-19T02:03:39;99544.00;;;22.90
20092;BMP180;10205;49.678;6.560;2023-09-19T02:06:07;99549.00;;;22.80
20092;BMP180;10205;49.678;6.560;2023-09-19T02:08:37;99562.00;;;22.80
20092;BMP180;10205;49.678;6.560;2023-09-19T02:11:05;99557.00;;;22.80
20092;BMP180;10205;49.678;6.560;2023-09-19T02:13:32;99557.00;;;22.80
20092;BMP180;10205;49.678;6.560;2023-09-19T02:15:59;99562.00;;;22.80
20092;BMP180;10205;49.678;6.560;2023-09-19T02:18:29;99566.00;;;22.70
20092;BMP180;10205;49.678;6.560;2023-09-19T02:20:57;99567.00;;;22.70
20092;BMP180;10205;49.678;6.560;2023-09-19T02:23:24;99568.00;;;22.70
20092;BMP180;10205;49.678;6.560;2023-09-19T02:25:52;99568.00;;;22.60
20092;BMP180;10205;49.678;6.560;2023-09-19T02:28:20;99578.00;;;22.60
20092;BMP180;10205;49.678;6.560;2023-09-19T02:30:48;99577.00;;;22.60
20092;BMP180;10205;49.678;6.560;2023-09-19T02:33:16;99578.00;;;22.50
20092;BMP180;10205;49.678;6.560;2023-09-19T02:35:45;99583.00;;;22.50
20092;BMP180;10205;49.678;6.560;2023-09-19T02:38:12;99583.00;;;22.50
20092;BMP180;10205;49.678;6.560;2023-09-19T02:40:40;99589.00;;;22.50
20092;BMP180;10205;49.678;6.560;2023-09-19T02:43:09;99600.00;;;22.50
20092;BMP180;10205;49.678;6.560;2023-09-19T02:45:36;99604.00;;;22.50
20092;BMP180;10205;49.678;6.560;2023-09-19T02:48:05;99597.00;;;22.40
20092;BMP180;10205;49.678;6.560;2023-09-19T02:50:33;99598.00;;;22.40
20092;BMP180;10205;49.678;6.560;2023-09-19T02:53:03;99594.00;;;22.40
20092;BMP180;10205;49.678;6.560;2023-09-19T02:55:30;99605.00;;;22.40
20092;BMP180;10205;49.678;6.560;2023-09-19T02:57:58;99607.00;;;22.30
20092;BMP180;10205;49.678;6.560;2023-09-19T03:00:26;99599.00;;;22.30
20092;BMP180;10205;49.678;6.560;2023-09-19T03:02:55;99605.00;;;22.30
20092;BMP180;10205;49.678;6.560;2023-09-19T03:05:23;99609.00;;;22.30
20092;BMP180;10205;49.678;6.560;2023-09-19T03:07:52;99620.00;;;22.20
20092;BMP180;10205;49.678;6.560;2023-09-19T03:10:23;99616.00;;;22.20
20092;BMP180;10205;49.678;6.560;2023-09-19T03:12:50;99628.00;;;22.20
20092;BMP180;10205;49.678;6.560;2023-09-19T03:15:18;99623.00;;;22.20
20092;BMP180;10205;49.678;6.560;2023-09-19T03:17:45;99618.00;;;22.20
20092;BMP180;10205;49.678;6.560;2023-09-19T03:20:13;99619.00;;;22.20
20092;BMP180;10205;49.678;6.560;2023-09-19T03:22:43;99613.00;;;22.10
20092;BMP180;10205;49.678;6.560;2023-09-19T03:25:10;99619.00;;;22.10
20092;BMP180;10205;49.678;6.560;2023-09-19T03:27:40;99614.00;;;22.10
20092;BMP180;10205;49.678;6.560;2023-09-19T03:30:08;99606.00;;;22.10
20092;BMP180;10205;49.678;6.560;2023-09-19T03:32:35;99609.00;;;22.00
20092;BMP180;10205;49.678;6.560;2023-09-19T03:35:04;99610.00;;;22.00
20092;BMP180;10205;49.678;6.560;2023-09-19T03:37:32;99601.00;;;22.00
20092;BMP180;10205;49.678;6.560;2023-09-19T03:39:59;99605.00;;;22.00
20092;BMP180;10205;49.678;6.560;2023-09-19T03:42:30;99602.00;;;21.90
20092;BMP180;10205;49.678;6.560;2023-09-19T03:44:59;99614.00;;;21.90
20092;BMP180;10205;49.678;6.560;2023-09-19T03:47:30;99628.00;;;21.90
20092;BMP180;10205;49.678;6.560;2023-09-19T03:49:57;99612.00;;;21.90
20092;BMP180;10205;49.678;6.560;2023-09-19T03:52:24;99601.00;;;21.90
20092;BMP180;10205;49.678;6.560;2023-09-19T03:54:52;99610.00;;;21.80
20092;BMP180;10205;49.678;6.560;2023-09-19T03:57:19;99601.00;;;21.80
20092;BMP180;10205;49.678;6.560;2023-09-19T03:59:47;99603.00;;;21.80
20092;BMP180;10205;49.678;6.560;2023-09-19T04:02:15;99604.00;;;21.80
20092;BMP180;10205;49.678;6.560;2023-09-19T04:04:48;99603.00;;;21.70
20092;BMP180;10205;49.678;6.560;2023-09-19T04:07:15;99604.00;;;21.70
20092;BMP180;10205;49.678;6.560;2023-09-19T04:09:43;99611.00;;;21.70
20092;BMP180;10205;49.678;6.560;2023-09-19T04:12:10;99600.00;;;21.70
20092;BMP180;10205;49.678;6.560;2023-09-19T04:14:37;99615.00;;;21.70
20092;BMP180;10205;49.678;6.560;2023-09-19T04:17:04;99615.00;;;21.60
20092;BMP180;10205;49.678;6.560;2023-09-19T04:19:33;99611.00;;;21.60
20092;BMP180;10205;49.678;6.560;2023-09-19T04:22:00;99605.00;;;21.60
20092;BMP180;10205;49.678;6.560;2023-09-19T04:24:29;99606.00;;;21.60
20092;BMP180;10205;49.678;6.560;2023-09-19T04:26:58;99615.00;;;21.60
20092;BMP180;10205;49.678;6.560;2023-09-19T04:29:26;99623.00;;;21.60
20092;BMP180;10205;49.678;6.560;2023-09-19T04:31:55;99618.00;;;21.60
20092;BMP180;10205;49.678;6.560;2023-09-19T04:34:23;99635.00;;;21.50
20092;BMP180;10205;49.678;6.560;2023-09-19T04:36:52;99632.00;;;21.50
20092;BMP180;10205;49.678;6.560;2023-09-19T04:39:20;99639.00;;;21.50
20092;BMP180;10205;49.678;6.560;2023-09-19T04:41:51;99640.00;;;21.50
20092;BMP180;10205;49.678;6.560;2023-09-19T04:44:18;99643.00;;;21.50
20092;BMP180;10205;49.678;6.560;2023-09-19T04:46:46;99652.00;;;21.50
20092;BMP180;10205;49.678;6.560;2023-09-19T04:49:13;99664.00;;;21.50
20092;BMP180;10205;49.678;6.560;2023-09-19T04:51:40;99675.00;;;21.40
20092;BMP180;10205;49.678;6.560;2023-09-19T04:54:09;99670.00;;;21.40
20092;BMP180;10205;49.678;6.560;2023-09-19T04:56:37;99677.00;;;21.40
20092;BMP180;10205;49.678;6.560;2023-09-19T04:59:06;99680.00;;;21.40
20092;BMP180;10205;49.678;6.560;2023-09-19T05:01:33;99679.00;;;21.30
20092;BMP180;10205;49.678;6.560;2023-09-19T05:04:00;99683.00;;;21.30
20092;BMP180;10205;49.678;6.560;2023-09-19T05:06:30;99683.00;;;21.30
20092;BMP180;10205;49.678;6.560;2023-09-19T05:08:58;99675.00;;;21.30
20092;BMP180;10205;49.678;6.560;2023-09-19T05:11:27;99678.00;;;21.30
20092;BMP180;10205;49.678;6.560;2023-09-19T05:13:56;99665.00;;;21.20
20092;BMP180;10205;49.678;6.560;2023-09-19T05:16:23;99669.00;;;21.20
20092;BMP180;10205;49.678;6.560;2023-09-19T05:18:50;99662.00;;;21.20
20092;BMP180;10205;49.678;6.560;2023-09-19T05:21:18;99670.00;;;21.20
20092;BMP180;10205;49.678;6.560;2023-09-19T05:23:45;99672.00;;;21.10
20092;BMP180;10205;49.678;6.560;2023-09-19T05:26:13;99669.00;;;21.10
20092;BMP180;10205;49.678;6.560;2023-09-19T05:28:43;99683.00;;;21.10
20092;BMP180;10205;49.678;6.560;2023-09-19T05:31:10;99687.00;;;21.10
20092;BMP180;10205;49.678;6.560;2023-09-19T05:33:37;99693.00;;;21.10
20092;BMP180;10205;49.678;6.560;2023-09-19T05:36:05;99692.00;;;21.10
20092;BMP180;10205;49.678;6.560;2023-09-19T05:38:35;99689.00;;;21.00
20092;BMP180;10205;49.678;6.560;2023-09-19T05:41:02;99684.00;;;21.00
20092;BMP180;10205;49.678;6.560;2023-09-19T05:43:29;99687.00;;;21.00
20092;BMP180;10205;49.678;6.560;2023-09-19T05:46:00;99686.00;;;21.00
20092;BMP180;10205;49.678;6.560;2023-09-19T05:48:27;99683.00;;;21.00
20092;BMP180;10205;49.678;6.560;2023-09-19T05:50:54;99682.00;;;20.90
20092;BMP180;10205;49.678;6.560;2023-09-19T05:53:21;99683.00;;;20.90
20092;BMP180;10205;49.678;6.560;2023-09-19T05:55:49;99711.00;;;20.90
20092;BMP180;10205;49.678;6.560;2023-09-19T05:58:16;99710.00;;;20.90
20092;BMP180;10205;49.678;6.560;2023-09-19T06:00:43;99720.00;;;20.80
20092;BMP180;10205;49.678;6.560;2023-09-19T06:03:14;99714.00;;;20.80
20092;BMP180;10205;49.678;6.560;2023-09-19T06:05:43;99719.00;;;20.80
20092;BMP180;10205;49.678;6.560;2023-09-19T06:08:11;99709.00;;;20.80
20092;BMP180;10205;49.678;6.560;2023-09-19T06:10:39;99724.00;;;20.80
20092;BMP180;10205;49.678;6.560;2023-09-19T06:13:06;99726.00;;;20.80
20092;BMP180;10205;49.678;6.560;2023-09-19T06:15:35;99737.00;;;20.80
20092;BMP180;10205;49.678;6.560;2023-09-19T06:18:04;99735.00;;;20.70
20092;BMP180;10205;49.678;6.560;2023-09-19T06:20:34;99723.00;;;20.70
20092;BMP180;10205;49.678;6.560;2023-09-19T06:23:03;99739.00;;;20.70
20092;BMP180;10205;49.678;6.560;2023-09-19T06:25:30;99738.00;;;20.70
20092;BMP180;10205;49.678;6.560;2023-09-19T06:27:58;99739.00;;;20.60
20092;BMP180;10205;49.678;6.560;2023-09-19T06:30:26;99750.00;;;20.60
20092;BMP180;10205;49.678;6.560;2023-09-19T06:32:59;99752.00;;;20.60
20092;BMP180;10205;49.678;6.560;2023-09-19T06:35:28;99714.00;;;20.60
20092;BMP180;10205;49.678;6.560;2023-09-19T06:38:02;99745.00;;;20.60
20092;BMP180;10205;49.678;6.560;2023-09-19T06:40:30;99759.00;;;20.50
20092;BMP180;10205;49.678;6.560;2023-09-19T06:42:58;99770.00;;;20.50
20092;BMP180;10205;49.678;6.560;2023-09-19T06:45:28;99773.00;;;20.50
20092;BMP180;10205;49.678;6.560;2023-09-19T06:47:55;99772.00;;;20.50
20092;BMP180;10205;49.678;6.560;2023-09-19T06:50:24;99791.00;;;20.50
20092;BMP180;10205;49.678;6.560;2023-09-19T06:52:53;99782.00;;;20.50
20092;BMP180;10205;49.678;6.560;2023-09-19T06:55:24;99780.00;;;20.50
20092;BMP180;10205;49.678;6.560;2023-09-19T06:57:54;99786.00;;;20.50
20092;BMP180;10205;49.678;6.560;2023-09-19T07:00:21;99792.00;;;20.50
20092;BMP180;10205;49.678;6.560;2023-09-19T07:02:56;99792.00;;;20.50
20092;BMP180;10205;49.678;6.560;2023-09-19T07:05:24;99800.00;;;20.40
20092;BMP180;10205;49.678;6.560;2023-09-19T07:07:53;99793.00;;;20.40
20092;BMP180;10205;49.678;6.560;2023-09-19T07:10:22;99786.00;;;20.40
20092;BMP180;10205;49.678;6.560;2023-09-19T07:12:56;99809.00;;;20.40
20092;BMP180;10205;49.678;6.560;2023-09-19T07:15:25;99797.00;;;20.40
20092;BMP180;10205;49.678;6.560;2023-09-19T07:17:52;99812.00;;;20.40
20092;BMP180;10205;49.678;6.560;2023-09-19T07:20:20;99811.00;;;20.40
20092;BMP180;10205;49.678;6.560;2023-09-19T07:22:48;99813.00;;;20.40
20092;BMP180;10205;49.678;6.560;2023-09-19T07:25:16;99823.00;;;20.40
20092;BMP180;10205;49.678;6.560;2023-09-19T07:27:44;99826.00;;;20.40
20092;BMP180;10205;49.678;6.560;2023-09-19T07:30:13;99803.00;;;20.40
20092;BMP180;10205;49.678;6.560;2023-09-19T07:32:42;99819.00;;;20.40
20092;BMP180;10205;49.678;6.560;2023-09-19T07:35:09;99824.00;;;20.40
20092;BMP180;10205;49.678;6.560;2023-09-19T07:37:38;99823.00;;;20.40
20092;BMP180;10205;49.678;6.560;2023-09-19T07:40:06;99823.00;;;20.40
20092;BMP180;10205;49.678;6.560;2023-09-19T07:42:35;99825.00;;;20.40
20092;BMP180;10205;49.678;6.560;2023-09-19T07:45:07;99830.00;;;20.40
20092;BMP180;10205;49.678;6.560;2023-09-19T07:47:37;99831.00;;;20.40
20092;BMP180;10205;49.678;6.560;2023-09-19T07:50:05;99831.00;;;20.40
20092;BMP180;10205;49.678;6.560;2023-09-19T07:52:33;99834.00;;;20.40
20092;BMP180;10205;49.678;6.560;2023-09-19T07:55:00;99831.00;;;20.40
20092;BMP180;10205;49.678;6.560;2023-09-19T07:57:32;99844.00;;;20.50
20092;BMP180;10205;49.678;6.560;2023-09-19T08:00:00;99847.00;;;20.50
20092;BMP180;10205;49.678;6.560;2023-09-19T08:02:35;99838.00;;;20.50
20092;BMP180;10205;49.678;6.560;2023-09-19T08:05:04;99840.00;;;20.50
20092;BMP180;10205;49.678;6.560;2023-09-19T08:07:36;99836.00;;;20.50
20092;BMP180;10205;49.678;6.560;2023-09-19T08:10:04;99839.00;;;20.50
20092;BMP180;10205;49.678;6.560;2023-09-19T08:12:33;99836.00;;;20.60
20092;BMP180;10205;49.678;6.560;2023-09-19T08:15:02;99837.00;;;20.60
20092;BMP180;10205;49.678;6.560;2023-09-19T08:17:33;99835.00;;;20.60
20092;BMP180;10205;49.678;6.560;2023-09-19T08:20:02;99841.00;;;20.60
20092;BMP180;10205;49.678;6.560;2023-09-19T08:22:31;99838.00;;;20.60
20092;BMP180;10205;49.678;6.560;2023-09-19T08:24:59;99840.00;;;20.70
20092;BMP180;10205;49.678;6.560;2023-09-19T08:27:30;99836.00;;;20.70
20092;BMP180;10205;49.678;6.560;2023-09-19T08:29:58;99848.00;;;20.70
20092;BMP180;10205;49.678;6.560;2023-09-19T08:32:25;99847.00;;;20.80
20092;BMP180;10205;49.678;6.560;2023-09-19T08:34:53;99860.00;;;20.80
20092;BMP180;10205;49.678;6.560;2023-09-19T08:37:22;99834.00;;;20.80
20092;BMP180;10205;49.678;6.560;2023-09-19T08:39:49;99845.00;;;20.90
20092;BMP180;10205;49.678;6.560;2023-09-19T08:42:16;99841.00;;;20.90
20092;BMP180;10205;49.678;6.560;2023-09-19T08:44:47;99853.00;;;20.90
20092;BMP180;10205;49.678;6.560;2023-09-19T08:47:15;99849.00;;;20.90
20092;BMP180;10205;49.678;6.560;2023-09-19T08:49:57;99864.00;;;21.00
20092;BMP180;10205;49.678;6.560;2023-09-19T08:52:32;99859.00;;;21.00
20092;BMP180;10205;49.678;6.560;2023-09-19T08:55:07;99860.00;;;21.00
20092;BMP180;10205;49.678;6.560;2023-09-19T08:57:40;99852.00;;;21.00
20092;BMP180;10205;49.678;6.560;2023-09-19T09:00:11;99858.00;;;21.00
20092;BMP180;10205;49.678;6.560;2023-09-19T09:02:43;99850.00;;;21.10
20092;BMP180;10205;49.678;6.560;2023-09-19T09:05:13;99838.00;;;21.10
20092;BMP180;10205;49.678;6.560;2023-09-19T09:07:44;99845.00;;;21.10
20092;BMP180;10205;49.678;6.560;2023-09-19T09:10:12;99855.00;;;21.20
20092;BMP180;10205;49.678;6.560;2023-09-19T09:12:40;99849.00;;;21.20
20092;BMP180;10205;49.678;6.560;2023-09-19T09:15:10;99842.00;;;21.30
20092;BMP180;10205;49.678;6.560;2023-09-19T09:17:42;99832.00;;;21.30
20092;BMP180;10205;49.678;6.560;2023-09-19T09:20:11;99828.00;;;21.30
20092;BMP180;10205;49.678;6.560;2023-09-19T09:22:39;99846.00;;;21.40
20092;BMP180;10205;49.678;6.560;2023-09-19T09:25:20;99856.00;;;21.40
20092;BMP180;10205;49.678;6.560;2023-09-19T09:27:59;99820.00;;;21.50
20092;BMP180;10205;49.678;6.560;2023-09-19T09:30:36;99844.00;;;21.50
20092;BMP180;10205;49.678;6.560;2023-09-19T09:33:10;99848.00;;;21.60
20092;BMP180;10205;49.678;6.560;2023-09-19T09:35:47;99843.00;;;21.60
20092;BMP180;10205;49.678;6.560;2023-09-19T09:38:19;99847.00;;;21.60
20092;BMP180;10205;49.678;6.560;2023-09-19T09:40:49;99849.00;;;21.70
20092;BMP180;10205;49.678;6.560;2023-09-19T09:43:29;99852.00;;;21.70
20092;BMP180;10205;49.678;6.560;2023-09-19T09:46:13;99838.00;;;21.80
20092;BMP180;10205;49.678;6.560;2023-09-19T09:48:59;99839.00;;;21.80
20092;BMP180;10205;49.678;6.560;2023-09-19T09:51:49;99847.00;;;21.90
20092;BMP180;10205;49.678;6.560;2023-09-19T09:54:26;99840.00;;;21.90
20092;BMP180;10205;49.678;6.560;2023-09-19T09:57:02;99849.00;;;22.00
20092;BMP180;10205;49.678;6.560;2023-09-19T09:59:49;99826.00;;;22.00
20092;BMP180;10205;49.678;6.560;2023-09-19T10:02:19;99844.00;;;22.10
20092;BMP180;10205;49.678;6.560;2023-09-19T10:04:56;99850.00;;;22.10
20092;BMP180;10205;49.678;6.560;2023-09-19T10:07:36;99840.00;;;22.20
20092;BMP180;10205;49.678;6.560;2023-09-19T10:10:08;99841.00;;;22.20
20092;BMP180;10205;49.678;6.560;2023-09-19T10:12:50;99846.00;;;22.30
20092;BMP180;10205;49.678;6.560;2023-09-19T10:15:26;99846.00;;;22.40
20092;BMP180;10205;49.678;6.560;2023-09-19T10:17:56;99851.00;;;22.40
20092;BMP180;10205;49.678;6.560;2023-09-19T10:20:25;99831.00;;;22.50
20092;BMP180;10205;49.678;6.560;2023-09-19T10:23:07;99829.00;;;22.60
20092;BMP180;10205;49.678;6.560;2023-09-19T10:25:41;99839.00;;;22.60
20092;BMP180;10205;49.678;6.560;2023-09-19T10:28:13;99830.00;;;22.70
20092;BMP180;10205;49.678;6.560;2023-09-19T10:30:44;99807.00;;;22.70
20092;BMP180;10205;49.678;6.560;2023-09-19T10:33:14;99825.00;;;22.80
20092;BMP180;10205;49.678;6.560;2023-09-19T10:35:44;99828.00;;;22.80
20092;BMP180;10205;49.678;6.560;2023-09-19T10:38:13;99823.00;;;22.90
20092;BMP180;10205;49.678;6.560;2023-09-19T10:40:41;99810.00;;;22.90
20092;BMP180;10205;49.678;6.560;2023-09-19T10:43:16;99822.00;;;23.00
20092;BMP180;10205;49.678;6.560;2023-09-19T10:45:45;99824.00;;;23.00
20092;BMP180;10205;49.678;6.560;2023-09-19T10:48:15;99826.00;;;23.00
20092;BMP180;10205;49.678;6.560;2023-09-19T10:50:48;99824.00;;;23.10
20092;BMP180;10205;49.678;6.560;2023-09-19T10:53:18;99821.00;;;23.10
20092;BMP180;10205;49.678;6.560;2023-09-19T10:55:57;99805.00;;;23.10
20092;BMP180;10205;49.678;6.560;2023-09-19T10:58:31;99802.00;;;23.20
20092;BMP180;10205;49.678;6.560;2023-09-19T11:01:00;99807.00;;;23.20
20092;BMP180;10205;49.678;6.560;2023-09-19T11:03:35;99810.00;;;23.20
20092;BMP180;10205;49.678;6.560;2023-09-19T11:06:12;99820.00;;;23.20
20092;BMP180;10205;49.678;6.560;2023-09-19T11:08:56;99810.00;;;23.30
20092;BMP180;10205;49.678;6.560;2023-09-19T11:14:41;99824.00;;;23.40
20092;BMP180;10205;49.678;6.560;2023-09-19T11:17:40;99822.00;;;23.40
20092;BMP180;10205;49.678;6.560;2023-09-19T11:20:24;99829.00;;;23.40
20092;BMP180;10205;49.678;6.560;2023-09-19T11:23:21;99820.00;;;23.50
20092;BMP180;10205;49.678;6.560;2023-09-19T11:25:50;99803.00;;;23.50
20092;BMP180;10205;49.678;6.560;2023-09-19T11:28:32;99797.00;;;23.50
20092;BMP180;10205;49.678;6.560;2023-09-19T11:34:47;99799.00;;;23.60
20092;BMP180;10205;49.678;6.560;2023-09-19T11:37:59;99789.00;;;23.70
20092;BMP180;10205;49.678;6.560;2023-09-19T11:40:36;99770.00;;;23.70
20092;BMP180;10205;49.678;6.560;2023-09-19T11:43:28;99790.00;;;23.70
20092;BMP180;10205;49.678;6.560;2023-09-19T11:46:06;99771.00;;;23.80
20092;BMP180;10205;49.678;6.560;2023-09-19T11:48:35;99767.00;;;23.50
20092;BMP180;10205;49.678;6.560;2023-09-19T11:51:19;99777.00;;;23.90
20092;BMP180;10205;49.678;6.560;2023-09-19T11:53:51;99761.00;;;23.90
20092;BMP180;10205;49.678;6.560;2023-09-19T11:56:20;99763.00;;;24.00
20092;BMP180;10205;49.678;6.560;2023-09-19T11:58:52;99759.00;;;24.00
20092;BMP180;10205;49.678;6.560;2023-09-19T12:01:28;99770.00;;;24.10
20092;BMP180;10205;49.678;6.560;2023-09-19T12:03:58;99763.00;;;24.20
20092;BMP180;10205;49.678;6.560;2023-09-19T12:06:30;99773.00;;;24.20
20092;BMP180;10205;49.678;6.560;2023-09-19T12:08:59;99768.00;;;24.30
20092;BMP180;10205;49.678;6.560;2023-09-19T12:11:32;99763.00;;;24.30
20092;BMP180;10205;49.678;6.560;2023-09-19T12:14:02;99717.00;;;24.40
20092;BMP180;10205;49.678;6.560;2023-09-19T12:16:30;99751.00;;;24.40
20092;BMP180;10205;49.678;6.560;2023-09-19T12:19:18;99774.00;;;24.50
20092;BMP180;10205;49.678;6.560;2023-09-19T12:21:55;99760.00;;;24.50
20092;BMP180;10205;49.678;6.560;2023-09-19T12:24:25;99772.00;;;24.50
20092;BMP180;10205;49.678;6.560;2023-09-19T12:27:02;99752.00;;;24.60
20092;BMP180;10205;49.678;6.560;2023-09-19T12:29:32;99744.00;;;24.60
20092;BMP180;10205;49.678;6.560;2023-09-19T12:32:08;99758.00;;;24.60
20092;BMP180;10205;49.678;6.560;2023-09-19T12:34:36;99758.00;;;24.70
20092;BMP180;10205;49.678;6.560;2023-09-19T12:37:10;99745.00;;;24.70
20092;BMP180;10205;49.678;6.560;2023-09-19T12:39:48;99751.00;;;24.80
20092;BMP180;10205;49.678;6.560;2023-09-19T12:42:20;99747.00;;;24.60
20092;BMP180;10205;49.678;6.560;2023-09-19T12:44:51;99747.00;;;24.90
20092;BMP180;10205;49.678;6.560;2023-09-19T12:47:21;99763.00;;;24.90
20092;BMP180;10205;49.678;6.560;2023-09-19T12:50:10;99740.00;;;24.90
20092;BMP180;10205;49.678;6.560;2023-09-19T12:52:46;99746.00;;;24.90
20092;BMP180;10205;49.678;6.560;2023-09-19T12:55:22;99696.00;;;24.90
20092;BMP180;10205;49.678;6.560;2023-09-19T12:58:08;99730.00;;;25.00
20092;BMP180;10205;49.678;6.560;2023-09-19T13:00:38;99745.00;;;25.00
20092;BMP180;10205;49.678;6.560;2023-09-19T13:03:26;99733.00;;;25.00
20092;BMP180;10205;49.678;6.560;2023-09-19T13:05:56;99749.00;;;25.00
20092;BMP180;10205;49.678;6.560;2023-09-19T13:08:28;99741.00;;;25.10
20092;BMP180;10205;49.678;6.560;2023-09-19T13:11:08;99729.00;;;25.10
20092;BMP180;10205;49.678;6.560;2023-09-19T13:13:42;99726.00;;;25.10
20092;BMP180;10205;49.678;6.560;2023-09-19T13:16:11;99739.00;;;25.20
20092;BMP180;10205;49.678;6.560;2023-09-19T13:18:45;99689.00;;;25.20
20092;BMP180;10205;49.678;6.560;2023-09-19T13:21:14;99729.00;;;25.20
20092;BMP180;10205;49.678;6.560;2023-09-19T13:23:55;99727.00;;;25.20
20092;BMP180;10205;49.678;6.560;2023-09-19T13:26:25;99716.00;;;25.20
20092;BMP180;10205;49.678;6.560;2023-09-19T13:28:53;99721.00;;;25.20
20092;BMP180;10205;49.678;6.560;2023-09-19T13:31:21;99716.00;;;25.20
20092;BMP180;10205;49.678;6.560;2023-09-19T13:33:49;99718.00;;;25.20
20092;BMP180;10205;49.678;6.560;2023-09-19T13:36:18;99729.00;;;25.20
20092;BMP180;10205;49.678;6.560;2023-09-19T13:38:45;99718.00;;;25.20
20092;BMP180;10205;49.678;6.560;2023-09-19T13:41:16;99725.00;;;25.20
20092;BMP180;10205;49.678;6.560;2023-09-19T13:43:43;99719.00;;;25.20
20092;BMP180;10205;49.678;6.560;2023-09-19T13:46:15;99712.00;;;25.30
20092;BMP180;10205;49.678;6.560;2023-09-19T13:48:43;99712.00;;;25.20
20092;BMP180;10205;49.678;6.560;2023-09-19T13:51:11;99721.00;;;25.20
20092;BMP180;10205;49.678;6.560;2023-09-19T13:53:40;99710.00;;;25.20
20092;BMP180;10205;49.678;6.560;2023-09-19T13:56:07;99699.00;;;25.20
20092;BMP180;10205;49.678;6.560;2023-09-19T13:58:36;99706.00;;;25.20
20092;BMP180;10205;49.678;6.560;2023-09-19T14:01:03;99689.00;;;25.20
20092;BMP180;10205;49.678;6.560;2023-09-19T14:03:31;99698.00;;;25.20
20092;BMP180;10205;49.678;6.560;2023-09-19T14:05:58;99697.00;;;25.20
20092;BMP180;10205;49.678;6.560;2023-09-19T14:08:26;99703.00;;;25.20
20092;BMP180;10205;49.678;6.560;2023-09-19T14:10:53;99696.00;;;25.20
20092;BMP180;10205;49.678;6.560;2023-09-19T14:13:21;99687.00;;;25.30
20092;BMP180;10205;49.678;6.560;2023-09-19T14:15:50;99703.00;;;25.30
20092;BMP180;10205;49.678;6.560;2023-09-19T14:18:17;99697.00;;;25.30
20092;BMP180;10205;49.678;6.560;2023-09-19T14:20:48;99673.00;;;25.30
20092;BMP180;10205;49.678;6.560;2023-09-19T14:23:19;99675.00;;;25.30
20092;BMP180;10205;49.678;6.560;2023-09-19T14:25:46;99686.00;;;25.30
20092;BMP180;10205;49.678;6.560;2023-09-19T14:28:14;99695.00;;;25.30
20092;BMP180;10205;49.678;6.560;2023-09-19T14:30:41;99680.00;;;25.30
20092;BMP180;10205;49.678;6.560;2023-09-19T14:33:10;99678.00;;;25.30
20092;BMP180;10205;49.678;6.560;2023-09-19T14:35:37;99680.00;;;25.30
20092;BMP180;10205;49.678;6.560;2023-09-19T14:38:06;99670.00;;;25.30